sensor_id;sensor_type;location;lat;lon;timestamp;pressure;altitude;pressure_sealevel;temperature;humidity
56074;BME280;41950;55.840;37.442;2022-09-09T00:00:25;100404.63;;;7.30;71.37
56074;BME280;41950;55.840;37.442;2022-09-09T00:03:07;100417.53;;;7.33;71.35
56074;BME280;41950;55.840;37.442;2022-09-09T00:08:20;100417.56;;;7.35;70.85
56074;BME280;41950;55.840;37.442;2022-09-09T00:11:01;100404.63;;;7.30;71.51
56074;BME280;41950;55.840;37.442;2022-09-09T00:13:41;100408.09;;;7.37;71.32
56074;BME280;41950;55.840;37.442;2022-09-09T00:16:19;100411.53;;;7.37;71.46
56074;BME280;41950;55.840;37.442;2022-09-09T00:27:49;100409.72;;;7.23;71.30
56074;BME280;41950;55.840;37.442;2022-09-09T00:30:19;100409.75;;;7.29;71.71
56074;BME280;41950;55.840;37.442;2022-09-09T00:32:50;100418.41;;;7.34;71.76
56074;BME280;41950;55.840;37.442;2022-09-09T00:35:32;100427.84;;;7.30;71.48
56074;BME280;41950;55.840;37.442;2022-09-09T00:38:19;100426.97;;;7.27;71.46
56074;BME280;41950;55.840;37.442;2022-09-09T00:41:19;100424.34;;;7.21;71.67
56074;BME280;41950;55.840;37.442;2022-09-09T00:47:04;100416.47;;;7.08;71.93
56074;BME280;41950;55.840;37.442;2022-09-09T00:49:46;100426.81;;;7.08;71.72
56074;BME280;41950;55.840;37.442;2022-09-09T00:55:18;100436.25;;;7.06;72.07
56074;BME280;41950;55.840;37.442;2022-09-09T00:57:49;100444.84;;;7.07;72.43
56074;BME280;41950;55.840;37.442;2022-09-09T01:00:27;100446.56;;;7.03;72.37
56074;BME280;41950;55.840;37.442;2022-09-09T01:03:18;100443.97;;;7.03;72.55
56074;BME280;41950;55.840;37.442;2022-09-09T01:14:40;100438.72;;;6.94;72.35
56074;BME280;41950;55.840;37.442;2022-09-09T01:20:40;100437.00;;;6.93;72.50
56074;BME280;41950;55.840;37.442;2022-09-09T01:28:38;100462.03;;;7.03;72.47
56074;BME280;41950;55.840;37.442;2022-09-09T01:31:07;100454.25;;;7.00;72.36
56074;BME280;41950;55.840;37.442;2022-09-09T01:33:36;100455.09;;;6.95;72.44
56074;BME280;41950;55.840;37.442;2022-09-09T01:36:12;100468.03;;;6.99;72.44
56074;BME280;41950;55.840;37.442;2022-09-09T01:38:39;100455.94;;;6.95;72.54
56074;BME280;41950;55.840;37.442;2022-09-09T01:41:05;100460.25;;;6.95;72.46
56074;BME280;41950;55.840;37.442;2022-09-09T01:43:31;100474.88;;;6.97;72.27
56074;BME280;41950;55.840;37.442;2022-09-09T01:46:00;100467.97;;;6.93;72.41
56074;BME280;41950;55.840;37.442;2022-09-09T01:48:27;100469.66;;;6.91;72.39
56074;BME280;41950;55.840;37.442;2022-09-09T01:50:52;100479.09;;;6.86;72.60
56074;BME280;41950;55.840;37.442;2022-09-09T01:53:20;100483.38;;;6.86;72.66
56074;BME280;41950;55.840;37.442;2022-09-09T02:01:46;100491.00;;;6.76;72.75
56074;BME280;41950;55.840;37.442;2022-09-09T02:10:25;100475.41;;;6.64;72.75
56074;BME280;41950;55.840;37.442;2022-09-09T02:13:20;100497.84;;;6.74;73.02
56074;BME280;41950;55.840;37.442;2022-09-09T02:16:07;100496.97;;;6.71;73.07
56074;BME280;41950;55.840;37.442;2022-09-09T02:18:40;100502.09;;;6.69;73.01
56074;BME280;41950;55.840;37.442;2022-09-09T02:21:09;100492.59;;;6.65;73.47
56074;BME280;41950;55.840;37.442;2022-09-09T02:23:39;100497.78;;;6.68;73.22
56074;BME280;41950;55.840;37.442;2022-09-09T02:26:08;100491.78;;;6.69;73.43
56074;BME280;41950;55.840;37.442;2022-09-09T02:28:37;100501.25;;;6.70;73.48
56074;BME280;41950;55.840;37.442;2022-09-09T02:31:04;100489.13;;;6.62;73.44
56074;BME280;41950;55.840;37.442;2022-09-09T02:33:37;100500.38;;;6.70;73.57
56074;BME280;41950;55.840;37.442;2022-09-09T02:36:05;100504.66;;;6.66;73.21
56074;BME280;41950;55.840;37.442;2022-09-09T02:38:37;100510.66;;;6.64;73.08
56074;BME280;41950;55.840;37.442;2022-09-09T02:41:06;100500.28;;;6.61;73.42
56074;BME280;41950;55.840;37.442;2022-09-09T02:43:35;100499.44;;;6.60;73.66
56074;BME280;41950;55.840;37.442;2022-09-09T02:52:05;100522.66;;;6.60;73.73
56074;BME280;41950;55.840;37.442;2022-09-09T02:54:33;100527.81;;;6.60;74.00
56074;BME280;41950;55.840;37.442;2022-09-09T02:57:16;100524.38;;;6.63;73.82
56074;BME280;41950;55.840;37.442;2022-09-09T02:59:45;100526.97;;;6.63;73.78
56074;BME280;41950;55.840;37.442;2022-09-09T03:02:12;100538.13;;;6.62;74.02
56074;BME280;41950;55.840;37.442;2022-09-09T03:04:39;100533.81;;;6.59;73.83
56074;BME280;41950;55.840;37.442;2022-09-09T03:07:06;100532.09;;;6.61;73.94
56074;BME280;41950;55.840;37.442;2022-09-09T03:09:34;100531.91;;;6.47;74.08
56074;BME280;41950;55.840;37.442;2022-09-09T03:12:41;100487.69;;;6.17;73.92
56074;BME280;41950;55.840;37.442;2022-09-09T03:15:45;100546.50;;;6.44;74.25
56074;BME280;41950;55.840;37.442;2022-09-09T03:18:16;100511.75;;;6.17;74.37
56074;BME280;41950;55.840;37.442;2022-09-09T03:20:42;100524.88;;;6.33;74.26
56074;BME280;41950;55.840;37.442;2022-09-09T03:23:08;100485.81;;;6.04;74.14
56074;BME280;41950;55.840;37.442;2022-09-09T03:25:35;100523.84;;;6.23;74.23
56074;BME280;41950;55.840;37.442;2022-09-09T03:28:04;100542.91;;;6.31;74.72
56074;BME280;41950;55.840;37.442;2022-09-09T03:30:35;100532.47;;;6.24;74.56
56074;BME280;41950;55.840;37.442;2022-09-09T03:33:23;100560.13;;;6.35;74.53
56074;BME280;41950;55.840;37.442;2022-09-09T03:36:17;100548.91;;;6.30;74.85
56074;BME280;41950;55.840;37.442;2022-09-09T03:39:04;100558.41;;;6.34;74.52
56074;BME280;41950;55.840;37.442;2022-09-09T03:41:34;100556.66;;;6.32;74.41
56074;BME280;41950;55.840;37.442;2022-09-09T03:44:23;100566.94;;;6.30;74.59
56074;BME280;41950;55.840;37.442;2022-09-09T03:46:49;100572.03;;;6.29;74.56
56074;BME280;41950;55.840;37.442;2022-09-09T03:49:16;100559.91;;;6.20;74.46
56074;BME280;41950;55.840;37.442;2022-09-09T03:51:42;100552.94;;;6.13;74.58
56074;BME280;41950;55.840;37.442;2022-09-09T03:54:07;100563.31;;;6.19;74.75
56074;BME280;41950;55.840;37.442;2022-09-09T03:56:36;100571.91;;;6.18;74.73
56074;BME280;41950;55.840;37.442;2022-09-09T03:59:02;100578.88;;;6.25;75.07
56074;BME280;41950;55.840;37.442;2022-09-09T04:01:30;100571.13;;;6.24;74.72
56074;BME280;41950;55.840;37.442;2022-09-09T04:03:55;100578.06;;;6.28;74.58
56074;BME280;41950;55.840;37.442;2022-09-09T04:06:24;100575.53;;;6.31;74.62
56074;BME280;41950;55.840;37.442;2022-09-09T04:08:50;100572.09;;;6.30;74.60
56074;BME280;41950;55.840;37.442;2022-09-09T04:11:19;100573.94;;;6.39;74.73
56074;BME280;41950;55.840;37.442;2022-09-09T04:13:45;100571.34;;;6.39;74.50
56074;BME280;41950;55.840;37.442;2022-09-09T04:16:12;100562.78;;;6.40;74.57
56074;BME280;41950;55.840;37.442;2022-09-09T04:18:41;100573.09;;;6.41;74.56
56074;BME280;41950;55.840;37.442;2022-09-09T04:21:08;100582.66;;;6.48;74.09
56074;BME280;41950;55.840;37.442;2022-09-09T04:23:34;100558.47;;;6.40;74.08
56074;BME280;41950;55.840;37.442;2022-09-09T04:26:02;100588.75;;;6.55;73.82
56074;BME280;41950;55.840;37.442;2022-09-09T04:28:32;100587.88;;;6.55;73.96
56074;BME280;41950;55.840;37.442;2022-09-09T04:31:30;100584.53;;;6.60;74.05
56074;BME280;41950;55.840;37.442;2022-09-09T04:33:58;100563.06;;;6.61;73.74
56074;BME280;41950;55.840;37.442;2022-09-09T04:36:23;100579.50;;;6.71;73.31
56074;BME280;41950;55.840;37.442;2022-09-09T04:38:52;100570.88;;;6.67;73.46
56074;BME280;41950;55.840;37.442;2022-09-09T04:41:19;100571.78;;;6.71;73.15
56074;BME280;41950;55.840;37.442;2022-09-09T04:43:44;100588.25;;;6.82;72.81
56074;BME280;41950;55.840;37.442;2022-09-09T04:46:14;100581.38;;;6.82;72.68
56074;BME280;41950;55.840;37.442;2022-09-09T04:48:40;100589.19;;;6.87;72.73
56074;BME280;41950;55.840;37.442;2022-09-09T04:51:11;100589.25;;;6.92;72.61
56074;BME280;41950;55.840;37.442;2022-09-09T04:53:45;100584.06;;;6.92;72.30
56074;BME280;41950;55.840;37.442;2022-09-09T04:56:18;100581.47;;;6.90;72.08
56074;BME280;41950;55.840;37.442;2022-09-09T04:58:43;100556.38;;;6.78;71.77
56074;BME280;41950;55.840;37.442;2022-09-09T05:01:17;100604.03;;;7.08;71.57
56074;BME280;41950;55.840;37.442;2022-09-09T05:03:44;100598.06;;;7.12;71.82
56074;BME280;41950;55.840;37.442;2022-09-09T05:06:15;100599.88;;;7.19;71.58
56074;BME280;41950;55.840;37.442;2022-09-09T05:08:42;100599.06;;;7.25;71.55
56074;BME280;41950;55.840;37.442;2022-09-09T05:11:16;100601.69;;;7.28;71.49
56074;BME280;41950;55.840;37.442;2022-09-09T05:13:51;100589.66;;;7.28;71.35
56074;BME280;41950;55.840;37.442;2022-09-09T05:16:18;100599.28;;;7.41;71.08
56074;BME280;41950;55.840;37.442;2022-09-09T05:18:44;100602.75;;;7.47;70.43
56074;BME280;41950;55.840;37.442;2022-09-09T05:21:12;100609.69;;;7.52;70.14
56074;BME280;41950;55.840;37.442;2022-09-09T05:23:39;100614.91;;;7.58;69.85
56074;BME280;41950;55.840;37.442;2022-09-09T05:26:06;100622.72;;;7.64;70.04
56074;BME280;41950;55.840;37.442;2022-09-09T05:28:36;100605.50;;;7.66;69.44
56074;BME280;41950;55.840;37.442;2022-09-09T05:31:06;100611.69;;;7.81;70.15
56074;BME280;41950;55.840;37.442;2022-09-09T05:33:37;100618.63;;;7.88;69.36
56074;BME280;41950;55.840;37.442;2022-09-09T05:36:17;100617.75;;;7.87;69.08
56074;BME280;41950;55.840;37.442;2022-09-09T05:38:43;100615.31;;;8.01;68.39
56074;BME280;41950;55.840;37.442;2022-09-09T05:41:11;100610.13;;;7.98;67.92
56074;BME280;41950;55.840;37.442;2022-09-09T05:43:44;100616.19;;;8.04;68.10
56074;BME280;41950;55.840;37.442;2022-09-09T05:46:18;100614.50;;;8.10;67.76
56074;BME280;41950;55.840;37.442;2022-09-09T05:48:45;100614.56;;;8.17;67.28
56074;BME280;41950;55.840;37.442;2022-09-09T05:51:14;100613.72;;;8.21;67.31
56074;BME280;41950;55.840;37.442;2022-09-09T05:53:45;100597.34;;;8.21;66.87
56074;BME280;41950;55.840;37.442;2022-09-09T05:56:13;100617.31;;;8.37;66.83
56074;BME280;41950;55.840;37.442;2022-09-09T05:58:46;100621.56;;;8.32;65.68
56074;BME280;41950;55.840;37.442;2022-09-09T06:01:19;100593.00;;;8.15;65.69
56074;BME280;41950;55.840;37.442;2022-09-09T06:03:47;100627.66;;;8.37;66.08
56074;BME280;41950;55.840;37.442;2022-09-09T06:06:17;100626.00;;;8.48;65.74
56074;BME280;41950;55.840;37.442;2022-09-09T06:08:47;100621.69;;;8.47;65.16
56074;BME280;41950;55.840;37.442;2022-09-09T06:11:26;100640.72;;;8.55;64.94
56074;BME280;41950;55.840;37.442;2022-09-09T06:13:52;100631.25;;;8.59;64.80
56074;BME280;41950;55.840;37.442;2022-09-09T06:16:21;100650.31;;;8.73;64.59
56074;BME280;41950;55.840;37.442;2022-09-09T06:18:51;100643.47;;;8.80;64.15
56074;BME280;41950;55.840;37.442;2022-09-09T06:21:19;100638.31;;;8.84;63.16
56074;BME280;41950;55.840;37.442;2022-09-09T06:23:46;100642.63;;;8.84;62.96
56074;BME280;41950;55.840;37.442;2022-09-09T06:26:32;100645.22;;;8.85;63.22
56074;BME280;41950;55.840;37.442;2022-09-09T06:29:00;100650.44;;;8.97;62.61
56074;BME280;41950;55.840;37.442;2022-09-09T06:31:28;100649.66;;;9.09;62.54
56074;BME280;41950;55.840;37.442;2022-09-09T06:33:59;100653.97;;;9.13;62.73
56074;BME280;41950;55.840;37.442;2022-09-09T06:36:31;100661.78;;;9.28;61.87
56074;BME280;41950;55.840;37.442;2022-09-09T06:38:58;100654.91;;;9.34;60.70
56074;BME280;41950;55.840;37.442;2022-09-09T06:41:26;100666.16;;;9.34;59.77
56074;BME280;41950;55.840;37.442;2022-09-09T06:43:54;100654.00;;;9.27;59.58
56074;BME280;41950;55.840;37.442;2022-09-09T06:46:27;100663.50;;;9.25;59.03
56074;BME280;41950;55.840;37.442;2022-09-09T06:48:55;100660.91;;;9.17;59.19
56074;BME280;41950;55.840;37.442;2022-09-09T06:51:23;100656.59;;;9.30;59.95
56074;BME280;41950;55.840;37.442;2022-09-09T06:53:54;100662.72;;;9.49;59.98
56074;BME280;41950;55.840;37.442;2022-09-09T06:56:24;100664.50;;;9.67;59.51
56074;BME280;41950;55.840;37.442;2022-09-09T06:58:51;100658.47;;;9.81;60.07
56074;BME280;41950;55.840;37.442;2022-09-09T07:01:24;100667.16;;;9.99;60.00
56074;BME280;41950;55.840;37.442;2022-09-09T07:03:54;100666.28;;;10.19;58.78
56074;BME280;41950;55.840;37.442;2022-09-09T21:12:54;100856.78;;;7.50;69.50
56074;BME280;41950;55.840;37.442;2022-09-09T21:15:22;100818.53;;;7.25;69.85
56074;BME280;41950;55.840;37.442;2022-09-09T21:17:48;100845.53;;;7.45;70.21
56074;BME280;41950;55.840;37.442;2022-09-09T21:20:14;100860.25;;;7.51;70.45
56074;BME280;41950;55.840;37.442;2022-09-09T21:22:40;100849.81;;;7.44;70.20
56074;BME280;41950;55.840;37.442;2022-09-09T21:25:06;100858.50;;;7.50;70.34
56074;BME280;41950;55.840;37.442;2022-09-09T21:27:32;100850.69;;;7.45;70.62
56074;BME280;41950;55.840;37.442;2022-09-09T21:29:57;100855.03;;;7.48;70.46
56074;BME280;41950;55.840;37.442;2022-09-09T21:32:23;100850.72;;;7.47;70.53
56074;BME280;41950;55.840;37.442;2022-09-09T21:34:48;100860.16;;;7.44;70.45
56074;BME280;41950;55.840;37.442;2022-09-09T21:37:14;100856.56;;;7.36;70.56
56074;BME280;41950;55.840;37.442;2022-09-09T21:39:39;100871.31;;;7.40;70.41
56074;BME280;41950;55.840;37.442;2022-09-09T21:42:05;100869.59;;;7.41;70.46
56074;BME280;41950;55.840;37.442;2022-09-09T21:44:31;100873.00;;;7.40;70.77
56074;BME280;41950;55.840;37.442;2022-09-09T21:46:56;100864.28;;;7.33;70.54
56074;BME280;41950;55.840;37.442;2022-09-09T21:49:22;100866.03;;;7.36;70.62
56074;BME280;41950;55.840;37.442;2022-09-09T21:51:47;100868.66;;;7.37;70.57
56074;BME280;41950;55.840;37.442;2022-09-09T21:54:13;100863.41;;;7.33;70.53
56074;BME280;41950;55.840;37.442;2022-09-09T21:56:39;100869.47;;;7.35;70.59
56074;BME280;41950;55.840;37.442;2022-09-09T21:59:04;100871.19;;;7.34;70.86
56074;BME280;41950;55.840;37.442;2022-09-09T22:01:30;100865.09;;;7.31;70.66
56074;BME280;41950;55.840;37.442;2022-09-09T22:03:58;100865.06;;;7.28;70.86
56074;BME280;41950;55.840;37.442;2022-09-09T22:06:27;100868.50;;;7.28;71.08
56074;BME280;41950;55.840;37.442;2022-09-09T22:08:52;100873.66;;;7.27;70.73
56074;BME280;41950;55.840;37.442;2022-09-09T22:11:21;100874.47;;;7.23;71.20
56074;BME280;41950;55.840;37.442;2022-09-09T22:13:48;100870.94;;;7.18;71.24
56074;BME280;41950;55.840;37.442;2022-09-09T22:16:16;100881.25;;;7.16;71.27
56074;BME280;41950;55.840;37.442;2022-09-09T22:18:43;100876.00;;;7.11;71.59
56074;BME280;41950;55.840;37.442;2022-09-09T22:21:20;100874.34;;;7.13;71.31
56074;BME280;41950;55.840;37.442;2022-09-09T22:23:57;100871.66;;;7.10;71.63
56074;BME280;41950;55.840;37.442;2022-09-09T22:26:25;100867.31;;;7.06;71.71
56074;BME280;41950;55.840;37.442;2022-09-09T22:28:51;100872.44;;;7.03;72.01
56074;BME280;41950;55.840;37.442;2022-09-09T22:31:19;100875.88;;;7.04;72.06
56074;BME280;41950;55.840;37.442;2022-09-09T22:33:47;100875.00;;;7.03;72.04
56074;BME280;41950;55.840;37.442;2022-09-09T22:36:12;100874.97;;;7.02;72.30
56074;BME280;41950;55.840;37.442;2022-09-09T22:38:38;100862.88;;;6.98;72.15
56074;BME280;41950;55.840;37.442;2022-09-09T22:41:04;100866.31;;;6.98;72.41
56074;BME280;41950;55.840;37.442;2022-09-09T22:43:30;100872.34;;;6.97;72.39
56074;BME280;41950;55.840;37.442;2022-09-09T22:46:01;100867.09;;;6.93;72.42
56074;BME280;41950;55.840;37.442;2022-09-09T22:48:31;100862.75;;;6.89;72.67
56074;BME280;41950;55.840;37.442;2022-09-09T22:51:01;100858.47;;;6.91;72.69
56074;BME280;41950;55.840;37.442;2022-09-09T22:53:28;100854.09;;;6.87;72.40
56074;BME280;41950;55.840;37.442;2022-09-09T22:55:58;100862.63;;;6.84;72.82
56074;BME280;41950;55.840;37.442;2022-09-09T22:58:25;100875.63;;;6.89;72.55
56074;BME280;41950;55.840;37.442;2022-09-09T23:00:51;100873.91;;;6.88;72.72
56074;BME280;41950;55.840;37.442;2022-09-09T23:03:17;100872.06;;;6.82;72.70
56074;BME280;41950;55.840;37.442;2022-09-09T23:05:52;100882.34;;;6.79;72.76
56074;BME280;41950;55.840;37.442;2022-09-09T23:08:17;100881.47;;;6.78;73.15
56074;BME280;41950;55.840;37.442;2022-09-09T23:10:43;100873.59;;;6.71;73.29
56074;BME280;41950;55.840;37.442;2022-09-09T23:13:09;100882.34;;;6.79;73.26
56074;BME280;41950;55.840;37.442;2022-09-09T23:15:35;100891.78;;;6.78;73.25
56074;BME280;41950;55.840;37.442;2022-09-09T23:18:01;100874.50;;;6.73;73.38
56074;BME280;41950;55.840;37.442;2022-09-09T23:20:27;100872.75;;;6.72;73.33
56074;BME280;41950;55.840;37.442;2022-09-09T23:22:55;100881.41;;;6.74;73.14
56074;BME280;41950;55.840;37.442;2022-09-09T23:25:20;100874.50;;;6.73;73.37
56074;BME280;41950;55.840;37.442;2022-09-09T23:27:47;100881.41;;;6.74;73.54
56074;BME280;41950;55.840;37.442;2022-09-09T23:30:13;100891.66;;;6.71;73.70
56074;BME280;41950;55.840;37.442;2022-09-09T23:32:38;100874.41;;;6.67;73.44
56074;BME280;41950;55.840;37.442;2022-09-09T23:35:04;100882.13;;;6.67;73.10
56074;BME280;41950;55.840;37.442;2022-09-09T23:37:33;100887.25;;;6.64;73.47
56074;BME280;41950;55.840;37.442;2022-09-09T23:39:58;100879.41;;;6.58;73.30
56074;BME280;41950;55.840;37.442;2022-09-09T23:42:24;100884.56;;;6.58;73.47
56074;BME280;41950;55.840;37.442;2022-09-09T23:44:51;100878.44;;;6.53;73.16
56074;BME280;41950;55.840;37.442;2022-09-09T23:47:16;100880.97;;;6.51;73.27
56074;BME280;41950;55.840;37.442;2022-09-09T23:49:42;100886.19;;;6.54;73.32
56074;BME280;41950;55.840;37.442;2022-09-09T23:52:08;100879.28;;;6.51;73.39
56074;BME280;41950;55.840;37.442;2022-09-09T23:54:34;100884.41;;;6.50;73.46
56074;BME280;41950;55.840;37.442;2022-09-09T23:57:01;100892.09;;;6.48;73.38
56074;BME280;41950;55.840;37.442;2022-09-09T23:59:27;100887.75;;;6.44;73.40
